DLE weather

Dole-Tavaux Airport
Dole/Tavaux, Franche-Comté, France

Public forecast

Using degrees Celsius for public forecast. Weather courtesy of forecast.io.

METAR (pilot weather report)

Retrieved 2019/07/19 15:30 UTC (0 seconds ago):

LFGJ 191530Z AUTO 27006KT 230V340 CAVOK 29/13 Q1015 NOSIG

TAF (pilot weather forecast)

Forecast is more than 12 hours old.

Closest forecast is Dijon-Bourgogne Airport, 19.6 nm (36.2 km) NW. Retrieved 2015/06/01 00:11 UTC (4 years ago):

TAF LFSD 010600Z 0100/0124 CNL